Aviation Digital Data Service (ADDS)

Output produced by METARs form (0722 UTC 16 January 2018)
found at http://www.aviationweather.gov/adds/metars/
 
KSAV 160653Z AUTO 01003KT 10SM CLR 01/M03 A3044 RMK AO2 SLP309 T00061028
KSVN 160656Z AUTO 00000KT 10SM CLR 01/M04 A3041 RMK AO2 SLP301 T00131038 $
KLHW 160656Z AUTO 00000KT 10SM CLR M01/M03 A3041 RMK AO2 SLP301 T10131027 $
KTBR 160715Z AUTO 00000KT 10SM CLR M02/M03 A3044 RMK AO2 T10191035
KVDI 160715Z AUTO 00000KT 10SM CLR 00/M01 A3043 RMK AO2
KJYL 160715Z AUTO 00000KT 10SM CLR M02/M02 A3045 RMK AO2 T10191024
KDBN 160715Z AUTO 00000KT 10SM CLR M02/M02 A3046 RMK AO2
KJES 160656Z AUTO 00000KT 10SM CLR M01/M02 A3043 RMK AO2
KSSI 160653Z AUTO 36005KT 10SM CLR 02/01 A3041 RMK AO2 SLP298 T00220006
KBQK 160715Z AUTO 00000KT 1 1/2SM BR VV007 00/M01 A3042 RMK AO2 VIS 1/2V5
KAYS 160715Z AUTO 00000KT 10SM CLR 00/M02 A3042 RMK AO2 T10031017
KNBC 160656Z AUTO 35003KT 10SM CLR M01/M02 A3044 RMK AO2 SLP308 T10111022 $
KHXD 160715Z AUTO 02003KT 10SM CLR 02/M03 A3044 RMK AO2